Time;durP1;ratioP1;P1;durP2;ratioP2;P2;SDS_P1;SDS_P2;PMS_P1;PMS_P2;Temp;Humidity;BMP_temperature;BMP_pressure;BME280_temperature;BME280_humidity;BME280_pressure;Samples;Min_cycle;Max_cycle;Signal;HPM_P1;HPM_P2
2021/09/22 00:01:17;;;;;;;;;;;;;;;8.31;75.74;99489.72;5048492;28;19920;-77
2021/09/22 00:03:42;;;;;;;;;;;;;;;8.28;76.08;99485.38;5049551;28;19924;-77
2021/09/22 00:06:08;;;;;;;;;;;;;;;8.28;76.01;99480.19;5050007;28;20358;-77
2021/09/22 00:08:34;;;;;;;;;;;;;;;8.33;76.02;99495.75;5035686;28;20012;-77
2021/09/22 00:10:59;;;;;;;;;;;;;;;8.30;75.74;99483.66;5051944;28;19978;-78
2021/09/22 00:13:25;;;;;;;;;;;;;;;8.29;76.30;99484.50;5036221;28;19956;-78
2021/09/22 00:15:51;;;;;;;;;;;;;;;8.29;76.15;99490.56;5039091;28;19999;-76
2021/09/22 00:18:17;;;;;;;;;;;;;;;8.31;76.21;99489.72;5063795;28;19927;-78
2021/09/22 00:20:42;;;;;;;;;;;;;;;8.27;76.29;99484.53;5053869;28;20451;-77
2021/09/22 00:23:08;;;;;;;;;;;;;;;8.23;75.41;99487.16;5053166;28;19935;-78
2021/09/22 00:25:34;;;;;;;;;;;;;;;8.18;75.97;99479.38;5053139;28;19929;-78
2021/09/22 00:28:01;;;;;;;;;;;;;;;8.16;76.18;99482.84;5035502;28;19928;-76
2021/09/22 00:30:27;;;;;;;;;;;;;;;8.16;76.06;99486.34;5035035;28;20402;-77
2021/09/22 00:33:03;;;;;;;;;;;;;;;8.08;76.13;99488.91;5051920;28;19974;-80
2021/09/22 00:35:29;;;;;;;;;;;;;;;8.02;76.35;99483.78;5052846;28;19964;-77
2021/09/22 00:37:54;;;;;;;;;;;;;;;8.06;76.28;99488.06;5051515;28;19968;-77
2021/09/22 00:40:20;;;;;;;;;;;;;;;8.10;76.05;99487.19;5051158;28;20019;-77
2021/09/22 00:42:46;;;;;;;;;;;;;;;8.12;76.24;99482.88;5051091;28;19956;-77
2021/09/22 00:45:13;;;;;;;;;;;;;;;8.14;76.07;99472.50;5051241;28;20015;-78
2021/09/22 00:47:39;;;;;;;;;;;;;;;8.10;76.15;99474.22;5051308;28;19924;-76
2021/09/22 00:50:14;;;;;;;;;;;;;;;8.09;76.22;99471.66;5051470;28;20008;-77
2021/09/22 00:52:41;;;;;;;;;;;;;;;8.08;76.27;99478.56;5051130;28;19970;-77
2021/09/22 00:55:08;;;;;;;;;;;;;;;8.16;76.39;99468.19;5050819;28;20019;-78
2021/09/22 00:57:40;;;;;;;;;;;;;;;8.18;76.32;99473.34;5034403;28;19967;-76
2021/09/22 01:00:06;;;;;;;;;;;;;;;8.19;76.27;99475.06;5034344;28;19921;-78
2021/09/22 01:02:32;;;;;;;;;;;;;;;8.16;76.04;99468.19;5050453;28;19931;-78
2021/09/22 01:04:58;;;;;;;;;;;;;;;8.16;76.00;99468.19;5052457;28;20438;-78
2021/09/22 01:07:23;;;;;;;;;;;;;;;8.11;75.93;99467.34;5053286;28;19932;-78
2021/09/22 01:09:49;;;;;;;;;;;;;;;8.11;76.24;99462.16;5039019;28;20414;-77
2021/09/22 01:12:14;;;;;;;;;;;;;;;8.13;75.98;99461.25;5052744;28;20405;-77
2021/09/22 01:14:40;;;;;;;;;;;;;;;8.12;75.50;99458.69;5052617;28;20392;-78
2021/09/22 01:17:06;;;;;;;;;;;;;;;8.12;76.38;99454.34;5035537;28;19925;-76
2021/09/22 01:19:31;;;;;;;;;;;;;;;8.12;76.07;99448.31;5053040;28;19995;-77
2021/09/22 01:21:57;;;;;;;;;;;;;;;8.04;76.06;99450.97;5055586;28;19939;-77
2021/09/22 01:24:32;;;;;;;;;;;;;;;8.07;75.54;99457.84;5065011;28;19928;-77
2021/09/22 01:26:59;;;;;;;;;;;;;;;8.01;75.77;99455.25;5054439;28;19921;-78
2021/09/22 01:29:25;;;;;;;;;;;;;;;7.98;76.23;99462.19;5033961;28;20420;-76
2021/09/22 01:31:55;;;;;;;;;;;;;;;8.02;75.86;99451.81;5051315;28;20410;-76
2021/09/22 01:34:20;;;;;;;;;;;;;;;8.02;76.21;99452.69;5050472;28;19921;-76
2021/09/22 01:37:04;;;;;;;;;;;;;;;7.99;76.02;99444.91;5036262;28;20236;-77
2021/09/22 01:39:50;;;;;;;;;;;;;;;8.02;75.90;99444.03;5049975;28;19921;-77
2021/09/22 01:42:16;;;;;;;;;;;;;;;8.00;75.99;99451.84;5050011;28;19928;-77
2021/09/22 01:44:42;;;;;;;;;;;;;;;8.02;76.07;99455.28;5050579;28;19921;-78
2021/09/22 01:47:16;;;;;;;;;;;;;;;8.03;76.15;99448.34;5051292;28;19925;-76
2021/09/22 01:50:06;;;;;;;;;;;;;;;8.01;75.76;99443.19;5037722;28;19970;-77
2021/09/22 01:52:35;;;;;;;;;;;;;;;7.99;75.37;99444.91;5020064;28;20540;-76
2021/09/22 01:55:13;;;;;;;;;;;;;;;7.99;75.67;99450.09;5037880;28;19920;-77
2021/09/22 01:57:39;;;;;;;;;;;;;;;7.95;75.84;99451.81;5050420;28;19925;-77
2021/09/22 02:00:07;;;;;;;;;;;;;;;8.02;75.99;99450.09;5034276;28;19921;-76
2021/09/22 02:02:45;;;;;;;;;;;;;;;7.97;75.94;99460.47;5051926;28;19921;-76
2021/09/22 02:05:21;;;;;;;;;;;;;;;7.94;75.91;99455.31;5036128;28;19921;-76
2021/09/22 02:07:55;;;;;;;;;;;;;;;7.98;75.96;99459.59;5035372;28;20019;-77
2021/09/22 02:10:24;;;;;;;;;;;;;;;7.98;75.90;99458.75;5052890;28;19927;-77
2021/09/22 02:12:50;;;;;;;;;;;;;;;7.98;75.86;99456.16;5053519;28;20027;-77
2021/09/22 02:15:15;;;;;;;;;;;;;;;7.98;75.74;99457.00;5069713;28;19981;-76
2021/09/22 02:18:01;;;;;;;;;;;;;;;8.04;76.04;99457.84;5071275;28;19924;-77
2021/09/22 02:20:26;;;;;;;;;;;;;;;8.02;75.48;99447.50;5061888;28;19928;-76
2021/09/22 02:23:19;;;;;;;;;;;;;;;7.86;75.17;99467.41;5037679;28;19921;-76
2021/09/22 02:25:45;;;;;;;;;;;;;;;7.92;76.36;99463.94;5060752;28;19927;-77
2021/09/22 02:28:11;;;;;;;;;;;;;;;8.01;75.78;99448.38;5059026;28;19920;-78
2021/09/22 02:30:42;;;;;;;;;;;;;;;8.03;75.73;99453.53;5067122;28;19967;-78
2021/09/22 02:33:07;;;;;;;;;;;;;;;8.04;75.86;99455.25;5070743;28;19921;-78
2021/09/22 02:35:33;;;;;;;;;;;;;;;7.99;75.19;99448.34;5071092;28;20403;-77
2021/09/22 02:38:20;;;;;;;;;;;;;;;7.98;75.82;99450.97;5053954;28;20089;-77
2021/09/22 02:40:48;;;;;;;;;;;;;;;8.00;75.90;99449.25;5071621;28;19921;-77
2021/09/22 02:43:21;;;;;;;;;;;;;;;8.06;75.80;99444.00;5070910;28;19979;-78
2021/09/22 02:45:46;;;;;;;;;;;;;;;8.02;75.43;99447.50;5054460;28;19916;-78
2021/09/22 02:48:13;;;;;;;;;;;;;;;7.97;75.57;99444.06;5057808;28;19921;-77
2021/09/22 02:50:39;;;;;;;;;;;;;;;7.96;75.73;99440.59;5033644;28;19927;-78
2021/09/22 02:53:06;;;;;;;;;;;;;;;7.93;75.63;99439.75;5016815;28;19921;-78
2021/09/22 02:55:32;;;;;;;;;;;;;;;7.91;75.41;99441.50;5033667;28;19928;-78
2021/09/22 02:57:57;;;;;;;;;;;;;;;7.93;75.65;99444.94;5050110;28;19921;-78
2021/09/22 03:00:23;;;;;;;;;;;;;;;7.95;75.77;99441.47;5050033;28;20080;-77
2021/09/22 03:02:54;;;;;;;;;;;;;;;7.99;75.54;99437.16;5034093;28;19928;-78
2021/09/22 03:05:20;;;;;;;;;;;;;;;8.01;75.44;99445.78;5051915;28;19921;-76
2021/09/22 03:07:45;;;;;;;;;;;;;;;7.99;75.50;99437.16;5032953;28;19963;-77
2021/09/22 03:10:11;;;;;;;;;;;;;;;7.99;75.86;99437.16;5050271;28;20285;-77
2021/09/22 03:12:37;;;;;;;;;;;;;;;7.99;75.42;99435.41;5048450;28;19960;-78
2021/09/22 03:15:03;;;;;;;;;;;;;;;7.94;75.17;99429.41;5032599;28;20284;-77
2021/09/22 03:17:30;;;;;;;;;;;;;;;7.89;75.41;99430.25;5033699;28;19924;-78
2021/09/22 03:19:56;;;;;;;;;;;;;;;7.93;75.60;99437.16;5031992;28;20324;-78
2021/09/22 03:22:22;;;;;;;;;;;;;;;7.94;75.54;99433.72;5049616;28;19921;-77
2021/09/22 03:25:06;;;;;;;;;;;;;;;7.96;75.79;99431.97;5054845;28;19927;-77
2021/09/22 03:27:34;;;;;;;;;;;;;;;7.98;75.34;99432.84;5052688;28;19901;-76
2021/09/22 03:29:59;;;;;;;;;;;;;;;8.02;75.76;99431.97;5055340;28;20008;-78
2021/09/22 03:32:25;;;;;;;;;;;;;;;8.05;75.30;99431.06;5054103;28;19927;-79
2021/09/22 03:34:51;;;;;;;;;;;;;;;8.04;75.43;99437.13;5048260;28;19921;-77
2021/09/22 03:37:16;;;;;;;;;;;;;;;8.03;74.79;99438.88;5051251;28;20434;-77
2021/09/22 03:39:42;;;;;;;;;;;;;;;7.98;75.42;99440.59;5054680;28;19921;-78
2021/09/22 03:42:08;;;;;;;;;;;;;;;7.90;74.83;99442.34;5058324;28;19921;-79
2021/09/22 03:44:34;;;;;;;;;;;;;;;7.93;75.53;99437.16;5053869;28;19925;-79
2021/09/22 03:47:00;;;;;;;;;;;;;;;7.91;75.26;99428.53;5055177;28;20332;-79
2021/09/22 03:49:26;;;;;;;;;;;;;;;7.90;75.08;99432.88;5039161;28;19950;-78
2021/09/22 03:51:55;;;;;;;;;;;;;;;7.84;75.49;99432.88;5055111;28;19943;-77
2021/09/22 03:54:22;;;;;;;;;;;;;;;7.87;75.41;99429.41;5052878;28;20011;-78
2021/09/22 03:56:47;;;;;;;;;;;;;;;7.91;75.54;99429.41;5037226;28;20238;-78
2021/09/22 03:59:14;;;;;;;;;;;;;;;7.91;74.82;99433.72;5053753;28;19921;-77
2021/09/22 04:01:40;;;;;;;;;;;;;;;7.89;75.36;99438.03;5037798;28;19920;-79
2021/09/22 04:04:05;;;;;;;;;;;;;;;7.87;75.52;99435.47;5057519;28;20345;-79
2021/09/22 04:06:32;;;;;;;;;;;;;;;7.87;75.21;99439.78;5052585;28;19924;-78
2021/09/22 04:08:58;;;;;;;;;;;;;;;7.87;75.58;99442.38;5053613;28;20052;-77
2021/09/22 04:11:24;;;;;;;;;;;;;;;7.90;75.26;99444.94;5018815;28;19964;-78
2021/09/22 04:13:50;;;;;;;;;;;;;;;7.72;74.84;99407.88;5018196;28;20403;-77
2021/09/22 04:16:16;;;;;;;;;;;;;;;7.83;75.05;99444.13;5034834;28;20049;-79
2021/09/22 04:18:41;;;;;;;;;;;;;;;7.81;75.72;99441.53;5021597;28;19970;-79
2021/09/22 04:21:07;;;;;;;;;;;;;;;7.79;75.29;99444.97;5053142;28;19920;-78
2021/09/22 04:23:33;;;;;;;;;;;;;;;7.77;75.35;99445.00;5019258;28;19944;-77
2021/09/22 04:25:59;;;;;;;;;;;;;;;7.84;75.40;99444.09;5052779;28;19916;-78
2021/09/22 04:28:24;;;;;;;;;;;;;;;7.91;75.09;99446.66;5019583;28;19946;-78
2021/09/22 04:31:08;;;;;;;;;;;;;;;7.94;75.27;99437.19;5053632;28;19959;-79
2021/09/22 04:34:11;;;;;;;;;;;;;;;7.94;74.80;99442.34;5009721;28;19928;-79
2021/09/22 04:36:56;;;;;;;;;;;;;;;7.88;75.02;99444.97;5040063;28;19947;-77
2021/09/22 04:39:40;;;;;;;;;;;;;;;7.91;74.82;99436.31;5053483;28;19998;-78
2021/09/22 04:42:25;;;;;;;;;;;;;;;7.96;75.24;99434.56;5038542;28;19921;-78
2021/09/22 04:45:09;;;;;;;;;;;;;;;8.00;75.26;99438.88;5054153;28;19968;-77
2021/09/22 04:48:06;;;;;;;;;;;;;;;8.07;75.26;99443.13;5035718;28;20347;-77
2021/09/22 04:50:50;;;;;;;;;;;;;;;8.07;75.13;99439.72;5039180;28;20407;-76
2021/09/22 04:53:34;;;;;;;;;;;;;;;8.03;74.75;99436.28;5050608;28;19972;-78
2021/09/22 04:56:18;;;;;;;;;;;;;;;8.03;74.98;99433.69;5052972;28;20285;-78
2021/09/22 04:59:03;;;;;;;;;;;;;;;8.09;74.85;99438.81;5038275;28;19921;-78
2021/09/22 05:01:47;;;;;;;;;;;;;;;8.07;74.61;99440.56;5053538;28;20003;-78
2021/09/22 05:04:31;;;;;;;;;;;;;;;8.10;75.04;99437.94;5053650;28;20026;-77
2021/09/22 05:07:16;;;;;;;;;;;;;;;8.11;74.84;99434.50;5053758;28;20000;-78
2021/09/22 05:10:00;;;;;;;;;;;;;;;8.15;75.02;99435.34;5052591;28;19925;-78
2021/09/22 05:12:44;;;;;;;;;;;;;;;8.09;74.40;99431.03;5051668;28;20390;-76
2021/09/22 05:15:28;;;;;;;;;;;;;;;8.12;74.99;99435.38;5053235;28;20415;-77
2021/09/22 05:18:12;;;;;;;;;;;;;;;8.11;74.93;99431.91;5053028;28;19925;-75
2021/09/22 05:20:57;;;;;;;;;;;;;;;8.18;74.83;99434.47;5053719;28;20011;-76
2021/09/22 05:23:41;;;;;;;;;;;;;;;8.15;73.94;99435.34;5053602;28;19927;-76
2021/09/22 05:26:26;;;;;;;;;;;;;;;8.22;74.61;99434.44;5053547;28;20027;-76
2021/09/22 05:29:10;;;;;;;;;;;;;;;8.30;74.92;99436.97;5053485;28;19921;-78
2021/09/22 05:31:54;;;;;;;;;;;;;;;8.29;74.38;99436.13;5056822;28;19975;-77
2021/09/22 05:34:52;;;;;;;;;;;;;;;8.37;74.89;99436.09;5053105;28;20383;-79
2021/09/22 05:37:37;;;;;;;;;;;;;;;8.42;74.40;99441.25;5051876;28;19932;-78
2021/09/22 05:40:24;;;;;;;;;;;;;;;8.41;74.61;99437.81;5041230;28;20066;-78
2021/09/22 05:43:22;;;;;;;;;;;;;;;8.54;74.59;99437.75;5008369;28;19920;-76
2021/09/22 05:46:06;;;;;;;;;;;;;;;8.61;74.58;99439.44;5055219;28;19947;-76
2021/09/22 05:48:55;;;;;;;;;;;;;;;8.62;74.34;99437.69;5019892;28;19921;-77
2021/09/22 05:51:39;;;;;;;;;;;;;;;8.56;74.65;99431.69;5036873;28;19967;-77
2021/09/22 05:54:23;;;;;;;;;;;;;;;8.58;74.41;99447.22;5037666;28;20101;-78
2021/09/22 05:57:07;;;;;;;;;;;;;;;8.68;74.49;99437.66;5036998;28;19998;-77
2021/09/22 05:59:51;;;;;;;;;;;;;;;8.77;74.77;99442.78;5051796;28;20360;-78
2021/09/22 06:02:35;;;;;;;;;;;;;;;8.80;74.40;99447.09;5036883;28;19952;-77
2021/09/22 06:05:19;;;;;;;;;;;;;;;8.82;74.34;99448.81;5051232;28;20443;-78
2021/09/22 06:08:03;;;;;;;;;;;;;;;8.73;73.86;99446.28;5050707;28;19921;-82
2021/09/22 06:10:51;;;;;;;;;;;;;;;8.77;74.42;99452.28;5049881;28;19921;-76
2021/09/22 06:13:34;;;;;;;;;;;;;;;8.83;73.90;99452.25;5035972;28;19928;-77
2021/09/22 06:16:00;;;;;;;;;;;;;;;8.84;73.60;99460.03;5051066;28;19925;-77
2021/09/22 06:18:26;;;;;;;;;;;;;;;8.85;74.25;99447.94;5051731;28;19922;-79
2021/09/22 06:20:51;;;;;;;;;;;;;;;8.94;73.83;99450.44;5053738;28;19928;-78
2021/09/22 06:23:18;;;;;;;;;;;;;;;8.96;73.70;99451.28;5051751;28;19920;-77
2021/09/22 06:25:44;;;;;;;;;;;;;;;9.02;73.63;99455.59;5051605;28;19925;-76
2021/09/22 06:28:10;;;;;;;;;;;;;;;8.97;73.10;99449.56;5051789;28;19928;-77
2021/09/22 06:30:35;;;;;;;;;;;;;;;9.00;74.16;99452.13;5053450;28;19977;-77
2021/09/22 06:33:01;;;;;;;;;;;;;;;9.10;73.98;99447.72;5052595;28;20419;-78
2021/09/22 06:35:35;;;;;;;;;;;;;;;9.16;73.61;99445.06;5038105;28;20397;-76
2021/09/22 06:38:04;;;;;;;;;;;;;;;9.25;73.48;99450.19;5052089;28;20039;-78
2021/09/22 06:40:38;;;;;;;;;;;;;;;9.29;73.62;99449.28;5035379;28;19921;-79
2021/09/22 06:43:05;;;;;;;;;;;;;;;9.27;73.28;99460.56;5051903;28;19975;-78
2021/09/22 06:45:37;;;;;;;;;;;;;;;9.32;73.32;99457.06;5051824;28;19967;-78
2021/09/22 06:48:05;;;;;;;;;;;;;;;9.35;73.14;99461.34;5051739;28;19927;-79
2021/09/22 06:50:31;;;;;;;;;;;;;;;9.40;73.70;99464.78;5050903;28;20367;-78
2021/09/22 06:52:57;;;;;;;;;;;;;;;9.43;72.97;99456.97;5033491;28;20324;-78
2021/09/22 06:55:22;;;;;;;;;;;;;;;9.45;73.29;99468.19;5051898;28;19925;-77
2021/09/22 06:57:50;;;;;;;;;;;;;;;9.42;72.90;99464.75;5051099;28;20311;-78
2021/09/22 07:00:16;;;;;;;;;;;;;;;9.38;72.83;99466.53;5050145;28;20007;-79
2021/09/22 07:02:42;;;;;;;;;;;;;;;9.39;73.12;99473.44;5017088;28;19960;-78
2021/09/22 07:05:10;;;;;;;;;;;;;;;9.40;73.23;99456.97;5019984;28;19974;-78
2021/09/22 07:07:45;;;;;;;;;;;;;;;9.59;73.17;99472.38;5014406;28;20019;-77
2021/09/22 07:10:39;;;;;;;;;;;;;;;9.63;72.10;99469.72;5020173;28;19924;-78
2021/09/22 07:13:05;;;;;;;;;;;;;;;9.69;72.71;99476.63;5033162;28;20415;-78
2021/09/22 07:15:34;;;;;;;;;;;;;;;9.71;73.18;99471.41;5050221;28;19921;-78
2021/09/22 07:18:09;;;;;;;;;;;;;;;9.75;72.81;99468.75;5038917;28;19993;-78
2021/09/22 07:20:50;;;;;;;;;;;;;;;9.84;72.57;99465.16;5040812;28;19921;-79
2021/09/22 07:23:19;;;;;;;;;;;;;;;9.90;72.61;99466.88;5022335;28;19921;-78
2021/09/22 07:25:57;;;;;;;;;;;;;;;9.79;72.26;99472.19;5054901;28;20324;-77
2021/09/22 07:28:24;;;;;;;;;;;;;;;9.82;72.58;99472.13;5056220;28;20335;-78
2021/09/22 07:30:57;;;;;;;;;;;;;;;9.91;72.74;99472.03;5023117;28;20035;-76
2021/09/22 07:33:36;;;;;;;;;;;;;;;9.92;72.71;99468.56;5061489;28;19988;-78
2021/09/22 07:36:10;;;;;;;;;;;;;;;9.95;72.25;99468.53;5057010;28;20320;-78
2021/09/22 07:38:44;;;;;;;;;;;;;;;10.01;72.44;99470.19;5041912;28;19966;-78
2021/09/22 07:41:21;;;;;;;;;;;;;;;10.03;72.16;99470.19;5038341;28;19987;-76
2021/09/22 07:43:47;;;;;;;;;;;;;;;10.05;72.24;99471.00;5074419;28;19943;-78
2021/09/22 07:46:15;;;;;;;;;;;;;;;10.06;71.90;99472.72;5044521;28;19925;-78
2021/09/22 07:48:58;;;;;;;;;;;;;;;9.99;72.18;99471.09;5023967;28;19943;-77
2021/09/22 07:51:27;;;;;;;;;;;;;;;9.93;72.10;99472.88;5056050;28;19925;-79
2021/09/22 07:53:53;;;;;;;;;;;;;;;10.01;72.25;99466.75;5038554;28;20050;-79
2021/09/22 07:56:19;;;;;;;;;;;;;;;10.09;72.25;99478.75;5037524;28;19989;-80
2021/09/22 07:59:09;;;;;;;;;;;;;;;10.13;71.87;99478.72;5054649;28;20373;-79
2021/09/22 08:01:52;;;;;;;;;;;;;;;10.16;71.68;99476.94;5053637;28;19921;-77
2021/09/22 08:04:20;;;;;;;;;;;;;;;10.18;71.95;99488.19;5036122;28;19982;-78
2021/09/22 08:06:55;;;;;;;;;;;;;;;10.16;71.79;99486.47;5038294;28;19921;-79
2021/09/22 08:10:05;;;;;;;;;;;;;;;10.10;71.56;99484.81;5058290;28;19920;-78
2021/09/22 08:12:51;;;;;;;;;;;;;;;10.15;71.87;99485.63;5061481;28;20019;-77
2021/09/22 08:15:20;;;;;;;;;;;;;;;10.04;70.92;99488.34;5030236;28;19920;-76
2021/09/22 08:17:45;;;;;;;;;;;;;;;9.90;71.51;99492.84;5040312;28;19925;-76
2021/09/22 08:20:15;;;;;;;;;;;;;;;9.95;71.82;99494.53;5057020;28;19927;-78
2021/09/22 08:22:42;;;;;;;;;;;;;;;10.09;71.66;99490.88;5054617;28;20449;-75
2021/09/22 08:25:10;;;;;;;;;;;;;;;10.17;71.48;99486.47;5038996;28;20066;-78
2021/09/22 08:27:42;;;;;;;;;;;;;;;10.26;71.76;99488.09;5055836;28;19921;-77
2021/09/22 08:30:11;;;;;;;;;;;;;;;10.29;71.27;99492.38;5037101;28;19927;-79
2021/09/22 08:32:46;;;;;;;;;;;;;;;10.35;71.49;99493.19;5037327;28;19920;-77
2021/09/22 08:35:12;;;;;;;;;;;;;;;10.37;71.16;99496.59;5054446;28;19921;-78
2021/09/22 08:37:46;;;;;;;;;;;;;;;10.38;71.11;99494.88;5054261;28;19947;-78
2021/09/22 08:40:12;;;;;;;;;;;;;;;10.44;71.14;99493.97;5054446;28;20019;-77
2021/09/22 08:42:39;;;;;;;;;;;;;;;10.45;71.23;99493.97;5055068;28;19952;-77
2021/09/22 08:45:06;;;;;;;;;;;;;;;10.49;71.02;99493.00;5038232;28;19921;-78
2021/09/22 08:47:32;;;;;;;;;;;;;;;10.53;70.99;99497.28;5056368;28;19978;-77
2021/09/22 08:49:58;;;;;;;;;;;;;;;10.59;71.01;99498.09;5058725;28;20252;-77
2021/09/22 08:52:23;;;;;;;;;;;;;;;10.63;70.92;99486.78;5023967;28;19928;-75
2021/09/22 08:54:49;;;;;;;;;;;;;;;10.60;70.79;99494.63;5065409;28;19942;-77
2021/09/22 08:57:15;;;;;;;;;;;;;;;10.52;70.66;99499.94;5069942;28;19925;-77
2021/09/22 08:59:43;;;;;;;;;;;;;;;10.58;70.78;99493.78;5063212;28;19980;-79
2021/09/22 09:02:14;;;;;;;;;;;;;;;10.61;69.96;99504.16;5046610;28;19951;-77
2021/09/22 09:04:41;;;;;;;;;;;;;;;10.69;71.00;99490.16;5049690;28;19924;-76
2021/09/22 09:07:07;;;;;;;;;;;;;;;10.79;70.60;99495.22;5066359;28;19948;-76
2021/09/22 09:09:40;;;;;;;;;;;;;;;10.79;70.74;99493.47;5045719;28;19925;-77
2021/09/22 09:12:18;;;;;;;;;;;;;;;10.76;70.52;99498.72;5062734;28;19931;-77
2021/09/22 09:14:55;;;;;;;;;;;;;;;10.80;70.52;99500.41;5045900;28;19932;-79
2021/09/22 09:17:49;;;;;;;;;;;;;;;10.86;70.42;99499.44;5047268;28;20446;-76
2021/09/22 09:20:22;;;;;;;;;;;;;;;10.87;70.43;99501.16;5047265;28;19921;-77
2021/09/22 09:22:54;;;;;;;;;;;;;;;10.68;69.68;99505.78;5040802;28;19921;-78
2021/09/22 09:25:27;;;;;;;;;;;;;;;10.49;70.03;99511.22;5039255;28;19944;-78
2021/09/22 09:27:56;;;;;;;;;;;;;;;10.55;70.10;99513.75;5022777;28;20376;-79
2021/09/22 09:30:25;;;;;;;;;;;;;;;10.62;70.29;99508.47;5020444;28;19991;-78
2021/09/22 09:32:51;;;;;;;;;;;;;;;10.75;70.50;99506.56;5037598;28;19928;-77
2021/09/22 09:35:19;;;;;;;;;;;;;;;10.76;69.72;99513.50;5038395;28;19988;-77
2021/09/22 09:37:46;;;;;;;;;;;;;;;10.59;69.49;99511.13;5021399;28;20249;-77
2021/09/22 09:40:20;;;;;;;;;;;;;;;10.48;69.28;99513.84;5037889;28;19948;-78
2021/09/22 09:42:46;;;;;;;;;;;;;;;10.56;70.01;99514.63;5037666;28;19931;-79
2021/09/22 09:45:12;;;;;;;;;;;;;;;10.69;70.21;99512.72;5037497;28;19921;-80
2021/09/22 09:47:39;;;;;;;;;;;;;;;10.75;70.02;99504.81;5021967;28;19925;-78
2021/09/22 09:50:19;;;;;;;;;;;;;;;10.64;68.80;99504.09;5031243;28;19920;-77
2021/09/22 09:53:00;;;;;;;;;;;;;;;10.57;70.02;99507.66;5007354;28;19925;-77
2021/09/22 09:55:28;;;;;;;;;;;;;;;10.52;69.31;99507.75;5020306;28;19921;-79
2021/09/22 09:57:57;;;;;;;;;;;;;;;10.36;69.38;99512.25;5019810;28;19931;-78
2021/09/22 10:00:24;;;;;;;;;;;;;;;10.45;69.80;99516.50;5020611;28;19920;-76
2021/09/22 10:02:51;;;;;;;;;;;;;;;10.47;69.64;99518.22;5036536;28;19925;-79
2021/09/22 10:05:16;;;;;;;;;;;;;;;10.47;69.26;99517.34;5021042;28;19921;-78
2021/09/22 10:07:45;;;;;;;;;;;;;;;10.51;70.13;99512.06;5020761;28;20067;-76
2021/09/22 10:10:11;;;;;;;;;;;;;;;10.56;69.55;99519.81;5001953;28;19932;-78
2021/09/22 10:12:38;;;;;;;;;;;;;;;10.62;69.30;99516.28;5037047;28;19921;-78
2021/09/22 10:15:04;;;;;;;;;;;;;;;10.69;69.41;99517.94;5038141;28;19998;-78
2021/09/22 10:17:31;;;;;;;;;;;;;;;10.66;69.04;99517.97;5054820;28;19924;-78
2021/09/22 10:19:58;;;;;;;;;;;;;;;10.60;69.26;99512.84;5056770;28;19956;-77
2021/09/22 10:22:24;;;;;;;;;;;;;;;10.55;68.84;99518.09;5054858;28;20353;-77
2021/09/22 10:25:05;;;;;;;;;;;;;;;10.56;68.70;99522.44;5080661;27;19920;-77
2021/09/22 10:27:45;;;;;;;;;;;;;;;10.48;68.73;99525.09;5029135;27;19982;-78
2021/09/22 10:30:31;;;;;;;;;;;;;;;10.34;69.02;99527.88;5084328;27;19920;-77
2021/09/22 10:33:24;;;;;;;;;;;;;;;10.28;69.11;99527.06;5021816;28;19975;-77
2021/09/22 10:36:03;;;;;;;;;;;;;;;10.32;69.08;99540.03;5139878;27;19950;-79
2021/09/22 10:38:44;;;;;;;;;;;;;;;10.20;68.83;99530.63;5081412;27;19920;-78
2021/09/22 10:41:30;;;;;;;;;;;;;;;10.29;69.38;99531.38;5087242;28;19966;-78
2021/09/22 10:44:29;;;;;;;;;;;;;;;10.40;68.88;99537.38;5045940;28;19929;-76
2021/09/22 10:47:39;;;;;;;;;;;;;;;10.40;68.79;99530.41;5070594;27;2053697;-76
2021/09/22 10:50:45;;;;;;;;;;;;;;;10.44;68.90;99525.19;5081807;27;19929;-75
2021/09/22 10:53:32;;;;;;;;;;;;;;;10.51;69.00;99526.81;5084312;27;19920;-76
2021/09/22 10:56:13;;;;;;;;;;;;;;;10.54;68.66;99535.44;5100456;27;19973;-77
2021/09/22 10:58:52;;;;;;;;;;;;;;;10.60;68.75;99528.44;5063020;27;19921;-77
2021/09/22 11:01:40;;;;;;;;;;;;;;;10.58;68.15;99535.41;5062265;28;20007;-78
2021/09/22 11:04:25;;;;;;;;;;;;;;;10.39;68.47;99539.09;5063121;28;19951;-75
2021/09/22 11:07:04;;;;;;;;;;;;;;;10.35;68.50;99542.59;5043612;28;20373;-75
2021/09/22 11:09:42;;;;;;;;;;;;;;;10.43;68.15;99541.66;5084530;27;19997;-76
2021/09/22 11:12:20;;;;;;;;;;;;;;;10.48;68.71;99543.31;5054699;28;19920;-75
2021/09/22 11:14:59;;;;;;;;;;;;;;;10.52;68.79;99547.59;5084797;27;19921;-78
2021/09/22 11:17:36;;;;;;;;;;;;;;;10.37;67.51;99543.41;5083893;27;19924;-75
2021/09/22 11:20:15;;;;;;;;;;;;;;;10.34;68.54;99547.81;5062025;28;19921;-78
2021/09/22 11:22:52;;;;;;;;;;;;;;;10.46;69.00;99547.72;5091281;27;2040915;-79
2021/09/22 11:25:32;;;;;;;;;;;;;;;10.62;68.57;99547.50;5087493;27;19924;-77
2021/09/22 11:28:10;;;;;;;;;;;;;;;10.72;68.26;99550.84;5097156;27;19979;-77
2021/09/22 11:30:56;;;;;;;;;;;;;;;10.74;68.57;99547.31;5070652;28;19921;-76
2021/09/22 11:33:34;;;;;;;;;;;;;;;10.80;68.23;99551.59;5126356;27;19951;-76
2021/09/22 11:36:17;;;;;;;;;;;;;;;10.78;68.31;99549.00;5089710;27;19965;-77
2021/09/22 11:38:55;;;;;;;;;;;;;;;10.72;68.09;99550.84;5085119;27;19920;-76
2021/09/22 11:41:34;;;;;;;;;;;;;;;10.72;68.19;99551.69;5083146;27;19936;-75
2021/09/22 11:44:12;;;;;;;;;;;;;;;10.69;68.18;99554.34;5094967;27;20308;-77
2021/09/22 11:47:09;;;;;;;;;;;;;;;10.52;68.29;99552.81;5083582;27;19991;-78
2021/09/22 11:49:47;;;;;;;;;;;;;;;10.46;67.93;99552.03;5084422;27;19928;-76
2021/09/22 11:52:26;;;;;;;;;;;;;;;10.50;68.11;99558.91;5023324;28;19929;-75
2021/09/22 11:55:05;;;;;;;;;;;;;;;10.50;68.04;99556.31;5080226;27;19966;-74
2021/09/22 11:57:43;;;;;;;;;;;;;;;10.57;68.30;99554.50;5053704;27;19967;-74
2021/09/22 12:00:24;;;;;;;;;;;;;;;10.46;68.21;99555.50;5102560;27;19920;-74
2021/09/22 12:03:10;;;;;;;;;;;;;;;10.43;68.33;99549.47;5106475;27;19921;-75
2021/09/22 12:06:08;;;;;;;;;;;;;;;10.39;68.23;99557.28;5080972;27;19934;-74
2021/09/22 12:08:50;;;;;;;;;;;;;;;10.36;68.12;99557.34;5081697;27;19967;-77
2021/09/22 12:11:35;;;;;;;;;;;;;;;10.33;68.66;99562.56;5081282;27;19932;-75
2021/09/22 12:14:25;;;;;;;;;;;;;;;10.42;68.88;99565.94;5105475;27;20387;-76
2021/09/22 12:17:10;;;;;;;;;;;;;;;10.44;68.29;99557.25;5059733;28;19975;-73
2021/09/22 12:19:49;;;;;;;;;;;;;;;10.48;68.58;99560.69;5026911;28;19921;-78
2021/09/22 12:22:30;;;;;;;;;;;;;;;10.50;68.33;99567.56;5140115;27;19919;-75
2021/09/22 12:25:09;;;;;;;;;;;;;;;10.54;68.33;99561.47;5059592;27;19921;-75
2021/09/22 12:27:49;;;;;;;;;;;;;;;10.50;68.08;99562.38;5080161;27;19921;-74
2021/09/22 12:30:35;;;;;;;;;;;;;;;10.43;68.46;99565.06;5061516;27;19929;-74
2021/09/22 12:33:19;;;;;;;;;;;;;;;10.39;68.11;99561.66;5120042;27;19920;-73
2021/09/22 12:36:08;;;;;;;;;;;;;;;10.20;68.35;99564.44;5060542;27;19921;-76
2021/09/22 12:38:48;;;;;;;;;;;;;;;10.14;68.18;99567.09;5084010;27;19998;-77
2021/09/22 12:41:30;;;;;;;;;;;;;;;10.18;68.80;99566.19;5083810;27;19920;-76
2021/09/22 12:44:09;;;;;;;;;;;;;;;10.21;68.95;99565.28;5044021;28;20363;-75
2021/09/22 12:46:47;;;;;;;;;;;;;;;10.17;68.85;99559.28;5081806;27;19981;-74
2021/09/22 12:49:25;;;;;;;;;;;;;;;10.09;68.86;99567.16;5083966;27;19924;-74
2021/09/22 12:52:03;;;;;;;;;;;;;;;10.05;67.95;99569.78;5080454;27;19927;-75
2021/09/22 12:54:42;;;;;;;;;;;;;;;9.97;67.99;99567.28;5079536;27;19936;-74
2021/09/22 12:57:20;;;;;;;;;;;;;;;9.88;68.69;99580.38;5082996;27;19921;-79
2021/09/22 12:59:58;;;;;;;;;;;;;;;9.80;68.10;99578.69;5085457;27;19974;-78
2021/09/22 13:02:36;;;;;;;;;;;;;;;9.80;69.46;99578.69;5082217;27;20331;-78
2021/09/22 13:05:14;;;;;;;;;;;;;;;9.87;69.13;99579.50;5064997;27;19929;-75
2021/09/22 13:07:58;;;;;;;;;;;;;;;10.01;69.73;99575.91;5084918;27;20311;-75
2021/09/22 13:10:53;;;;;;;;;;;;;;;10.13;69.47;99580.13;5061420;27;19925;-75
2021/09/22 13:13:36;;;;;;;;;;;;;;;10.17;69.22;99580.06;5083055;27;19928;-75
2021/09/22 13:16:14;;;;;;;;;;;;;;;10.13;68.46;99578.38;5054998;28;19979;-73
2021/09/22 13:19:08;;;;;;;;;;;;;;;10.13;68.83;99591.38;5084404;27;19969;-77
2021/09/22 13:21:47;;;;;;;;;;;;;;;10.16;69.09;99586.16;5083429;27;19924;-78
2021/09/22 13:24:25;;;;;;;;;;;;;;;10.12;68.91;99586.19;5065528;27;19924;-75
2021/09/22 13:26:51;;;;;;;;;;;;;;;10.19;68.97;99588.72;5074730;28;19928;-74
2021/09/22 13:29:29;;;;;;;;;;;;;;;10.13;69.03;99590.53;5063478;27;19929;-77